sensor_id;sensor_type;location;lat;lon;timestamp;P1;durP1;ratioP1;P2;durP2;ratioP2
13368;SDS011;6753;52.520;13.450;2023-12-28T00:00:06;273.13;;;81.72;;
13368;SDS011;6753;52.520;13.450;2023-12-28T00:00:17;274.42;;;82.22;;
13368;SDS011;6753;52.520;13.450;2023-12-28T00:00:28;272.73;;;81.20;;
13368;SDS011;6753;52.520;13.450;2023-12-28T00:00:40;272.27;;;81.63;;
13368;SDS011;6753;52.520;13.450;2023-12-28T00:00:50;276.17;;;82.70;;
13368;SDS011;6753;52.520;13.450;2023-12-28T00:01:01;278.15;;;83.25;;
13368;SDS011;6753;52.520;13.450;2023-12-28T00:01:12;279.80;;;83.65;;
13368;SDS011;6753;52.520;13.450;2023-12-28T00:01:23;281.98;;;85.88;;
13368;SDS011;6753;52.520;13.450;2023-12-28T00:01:35;279.67;;;86.70;;
13368;SDS011;6753;52.520;13.450;2023-12-28T00:01:46;278.75;;;87.18;;
13368;SDS011;6753;52.520;13.450;2023-12-28T00:01:57;282.10;;;86.67;;
13368;SDS011;6753;52.520;13.450;2023-12-28T00:02:07;283.10;;;86.05;;
13368;SDS011;6753;52.520;13.450;2023-12-28T00:02:19;283.70;;;85.20;;
13368;SDS011;6753;52.520;13.450;2023-12-28T00:02:29;285.88;;;84.85;;
13368;SDS011;6753;52.520;13.450;2023-12-28T00:02:40;287.75;;;84.88;;
13368;SDS011;6753;52.520;13.450;2023-12-28T00:02:52;281.73;;;84.30;;
13368;SDS011;6753;52.520;13.450;2023-12-28T00:03:03;278.05;;;85.15;;
13368;SDS011;6753;52.520;13.450;2023-12-28T00:03:14;276.50;;;85.13;;
13368;SDS011;6753;52.520;13.450;2023-12-28T00:03:25;275.65;;;85.72;;
13368;SDS011;6753;52.520;13.450;2023-12-28T00:03:35;273.98;;;84.68;;
13368;SDS011;6753;52.520;13.450;2023-12-28T00:03:46;282.73;;;86.22;;
13368;SDS011;6753;52.520;13.450;2023-12-28T00:03:57;293.40;;;87.07;;
13368;SDS011;6753;52.520;13.450;2023-12-28T00:04:08;293.90;;;87.68;;
13368;SDS011;6753;52.520;13.450;2023-12-28T00:04:18;299.13;;;87.60;;
13368;SDS011;6753;52.520;13.450;2023-12-28T00:04:30;293.63;;;85.88;;
13368;SDS011;6753;52.520;13.450;2023-12-28T00:04:43;291.60;;;86.00;;
13368;SDS011;6753;52.520;13.450;2023-12-28T00:04:54;284.20;;;85.45;;
13368;SDS011;6753;52.520;13.450;2023-12-28T00:05:04;288.52;;;87.38;;
13368;SDS011;6753;52.520;13.450;2023-12-28T00:05:15;286.15;;;87.80;;
13368;SDS011;6753;52.520;13.450;2023-12-28T00:05:26;291.77;;;90.13;;
13368;SDS011;6753;52.520;13.450;2023-12-28T00:05:37;286.83;;;91.57;;
13368;SDS011;6753;52.520;13.450;2023-12-28T00:05:48;291.42;;;92.45;;
13368;SDS011;6753;52.520;13.450;2023-12-28T00:05:59;297.60;;;93.22;;
13368;SDS011;6753;52.520;13.450;2023-12-28T00:06:10;299.70;;;93.72;;
13368;SDS011;6753;52.520;13.450;2023-12-28T00:06:21;301.20;;;93.10;;
13368;SDS011;6753;52.520;13.450;2023-12-28T00:06:32;304.77;;;92.68;;
13368;SDS011;6753;52.520;13.450;2023-12-28T00:06:42;305.48;;;92.53;;
13368;SDS011;6753;52.520;13.450;2023-12-28T00:06:53;308.57;;;93.17;;
13368;SDS011;6753;52.520;13.450;2023-12-28T00:07:04;308.33;;;93.22;;
13368;SDS011;6753;52.520;13.450;2023-12-28T00:07:15;305.08;;;92.97;;
13368;SDS011;6753;52.520;13.450;2023-12-28T00:07:25;299.40;;;92.30;;
13368;SDS011;6753;52.520;13.450;2023-12-28T00:07:36;296.45;;;91.20;;
13368;SDS011;6753;52.520;13.450;2023-12-28T00:07:47;300.23;;;90.57;;
13368;SDS011;6753;52.520;13.450;2023-12-28T00:07:58;291.23;;;89.68;;
13368;SDS011;6753;52.520;13.450;2023-12-28T00:08:09;294.98;;;90.55;;
13368;SDS011;6753;52.520;13.450;2023-12-28T00:08:20;300.52;;;90.30;;
13368;SDS011;6753;52.520;13.450;2023-12-28T00:08:31;301.85;;;91.03;;
13368;SDS011;6753;52.520;13.450;2023-12-28T00:08:42;298.05;;;90.20;;
13368;SDS011;6753;52.520;13.450;2023-12-28T00:08:53;293.55;;;90.30;;
13368;SDS011;6753;52.520;13.450;2023-12-28T00:09:04;287.17;;;88.77;;
13368;SDS011;6753;52.520;13.450;2023-12-28T00:09:14;292.45;;;89.63;;
13368;SDS011;6753;52.520;13.450;2023-12-28T00:09:25;289.50;;;90.07;;
13368;SDS011;6753;52.520;13.450;2023-12-28T00:09:36;300.73;;;91.57;;
13368;SDS011;6753;52.520;13.450;2023-12-28T00:09:48;309.45;;;92.47;;
13368;SDS011;6753;52.520;13.450;2023-12-28T00:09:58;306.23;;;90.85;;
13368;SDS011;6753;52.520;13.450;2023-12-28T00:10:10;301.83;;;90.85;;
13368;SDS011;6753;52.520;13.450;2023-12-28T00:10:21;305.33;;;91.28;;
13368;SDS011;6753;52.520;13.450;2023-12-28T00:10:31;308.58;;;93.00;;
13368;SDS011;6753;52.520;13.450;2023-12-28T00:10:42;308.85;;;92.95;;
13368;SDS011;6753;52.520;13.450;2023-12-28T00:10:53;309.83;;;95.20;;
13368;SDS011;6753;52.520;13.450;2023-12-28T00:11:04;317.43;;;95.87;;
13368;SDS011;6753;52.520;13.450;2023-12-28T00:11:14;316.85;;;94.93;;
13368;SDS011;6753;52.520;13.450;2023-12-28T00:11:26;320.67;;;94.93;;
13368;SDS011;6753;52.520;13.450;2023-12-28T00:11:37;318.80;;;95.00;;
13368;SDS011;6753;52.520;13.450;2023-12-28T00:11:48;314.73;;;93.68;;
13368;SDS011;6753;52.520;13.450;2023-12-28T00:11:59;325.63;;;96.57;;
13368;SDS011;6753;52.520;13.450;2023-12-28T00:12:10;335.93;;;99.43;;
13368;SDS011;6753;52.520;13.450;2023-12-28T00:12:21;350.60;;;104.32;;
13368;SDS011;6753;52.520;13.450;2023-12-28T00:12:32;367.52;;;108.22;;
13368;SDS011;6753;52.520;13.450;2023-12-28T00:12:43;368.20;;;109.18;;
13368;SDS011;6753;52.520;13.450;2023-12-28T00:12:56;367.35;;;110.47;;
13368;SDS011;6753;52.520;13.450;2023-12-28T00:13:07;358.95;;;108.57;;
13368;SDS011;6753;52.520;13.450;2023-12-28T00:13:18;347.40;;;105.60;;
13368;SDS011;6753;52.520;13.450;2023-12-28T00:13:29;335.60;;;102.40;;
13368;SDS011;6753;52.520;13.450;2023-12-28T00:13:40;342.58;;;103.90;;
13368;SDS011;6753;52.520;13.450;2023-12-28T00:13:51;346.70;;;104.30;;
13368;SDS011;6753;52.520;13.450;2023-12-28T00:14:02;349.13;;;104.03;;
13368;SDS011;6753;52.520;13.450;2023-12-28T00:14:15;346.92;;;104.43;;
13368;SDS011;6753;52.520;13.450;2023-12-28T00:14:25;346.50;;;103.60;;
13368;SDS011;6753;52.520;13.450;2023-12-28T00:14:36;341.60;;;102.33;;
13368;SDS011;6753;52.520;13.450;2023-12-28T00:14:47;340.67;;;103.65;;
13368;SDS011;6753;52.520;13.450;2023-12-28T00:14:58;348.40;;;104.55;;
13368;SDS011;6753;52.520;13.450;2023-12-28T00:15:09;352.08;;;106.07;;
13368;SDS011;6753;52.520;13.450;2023-12-28T00:15:19;352.25;;;107.43;;
13368;SDS011;6753;52.520;13.450;2023-12-28T00:15:30;361.20;;;110.13;;
13368;SDS011;6753;52.520;13.450;2023-12-28T00:15:41;353.08;;;108.70;;
13368;SDS011;6753;52.520;13.450;2023-12-28T00:15:53;348.35;;;108.93;;
13368;SDS011;6753;52.520;13.450;2023-12-28T00:16:04;350.53;;;109.40;;
13368;SDS011;6753;52.520;13.450;2023-12-28T00:16:15;351.05;;;108.95;;
13368;SDS011;6753;52.520;13.450;2023-12-28T00:16:26;352.63;;;110.00;;
13368;SDS011;6753;52.520;13.450;2023-12-28T00:16:38;351.33;;;110.40;;
13368;SDS011;6753;52.520;13.450;2023-12-28T00:16:49;353.60;;;108.68;;
13368;SDS011;6753;52.520;13.450;2023-12-28T00:17:00;348.88;;;107.93;;
13368;SDS011;6753;52.520;13.450;2023-12-28T00:17:14;344.15;;;106.82;;
13368;SDS011;6753;52.520;13.450;2023-12-28T00:17:24;343.27;;;105.63;;
13368;SDS011;6753;52.520;13.450;2023-12-28T00:17:35;352.23;;;104.85;;
13368;SDS011;6753;52.520;13.450;2023-12-28T00:17:46;358.25;;;106.75;;
13368;SDS011;6753;52.520;13.450;2023-12-28T00:17:57;367.23;;;108.47;;
13368;SDS011;6753;52.520;13.450;2023-12-28T00:18:08;368.42;;;109.95;;
13368;SDS011;6753;52.520;13.450;2023-12-28T00:18:19;374.52;;;113.30;;
13368;SDS011;6753;52.520;13.450;2023-12-28T00:18:30;375.35;;;114.88;;
13368;SDS011;6753;52.520;13.450;2023-12-28T00:18:40;374.73;;;115.60;;
13368;SDS011;6753;52.520;13.450;2023-12-28T00:18:51;371.23;;;114.82;;
13368;SDS011;6753;52.520;13.450;2023-12-28T00:19:02;377.13;;;115.95;;
13368;SDS011;6753;52.520;13.450;2023-12-28T00:19:13;377.98;;;116.00;;
13368;SDS011;6753;52.520;13.450;2023-12-28T00:19:24;372.33;;;115.45;;
13368;SDS011;6753;52.520;13.450;2023-12-28T00:19:35;371.10;;;114.05;;
13368;SDS011;6753;52.520;13.450;2023-12-28T00:19:47;371.70;;;113.70;;
13368;SDS011;6753;52.520;13.450;2023-12-28T00:19:58;366.77;;;112.45;;
13368;SDS011;6753;52.520;13.450;2023-12-28T00:20:09;355.40;;;108.27;;
13368;SDS011;6753;52.520;13.450;2023-12-28T00:20:21;362.75;;;108.20;;
13368;SDS011;6753;52.520;13.450;2023-12-28T00:20:31;363.70;;;106.85;;
13368;SDS011;6753;52.520;13.450;2023-12-28T00:20:42;350.50;;;105.00;;
13368;SDS011;6753;52.520;13.450;2023-12-28T00:20:53;345.00;;;104.17;;
13368;SDS011;6753;52.520;13.450;2023-12-28T00:21:04;343.77;;;104.65;;
13368;SDS011;6753;52.520;13.450;2023-12-28T00:21:15;342.30;;;104.80;;
13368;SDS011;6753;52.520;13.450;2023-12-28T00:21:25;332.02;;;103.80;;
13368;SDS011;6753;52.520;13.450;2023-12-28T00:21:36;335.50;;;104.22;;
13368;SDS011;6753;52.520;13.450;2023-12-28T00:21:48;340.75;;;104.13;;
13368;SDS011;6753;52.520;13.450;2023-12-28T00:21:59;347.02;;;105.60;;
13368;SDS011;6753;52.520;13.450;2023-12-28T00:22:10;357.05;;;108.00;;
13368;SDS011;6753;52.520;13.450;2023-12-28T00:22:21;363.95;;;109.47;;
13368;SDS011;6753;52.520;13.450;2023-12-28T00:22:31;374.63;;;110.97;;
13368;SDS011;6753;52.520;13.450;2023-12-28T00:22:42;384.10;;;112.57;;
13368;SDS011;6753;52.520;13.450;2023-12-28T00:22:53;382.70;;;114.00;;
13368;SDS011;6753;52.520;13.450;2023-12-28T00:23:04;382.75;;;114.63;;
13368;SDS011;6753;52.520;13.450;2023-12-28T00:23:15;383.20;;;113.70;;
13368;SDS011;6753;52.520;13.450;2023-12-28T00:23:27;378.92;;;113.47;;
13368;SDS011;6753;52.520;13.450;2023-12-28T00:23:38;371.98;;;112.63;;
13368;SDS011;6753;52.520;13.450;2023-12-28T00:23:48;371.05;;;111.32;;
13368;SDS011;6753;52.520;13.450;2023-12-28T00:23:59;367.30;;;110.77;;
13368;SDS011;6753;52.520;13.450;2023-12-28T00:24:10;364.50;;;109.97;;
13368;SDS011;6753;52.520;13.450;2023-12-28T00:24:21;363.02;;;109.65;;
13368;SDS011;6753;52.520;13.450;2023-12-28T00:24:31;365.67;;;109.18;;
13368;SDS011;6753;52.520;13.450;2023-12-28T00:24:42;361.70;;;108.37;;
13368;SDS011;6753;52.520;13.450;2023-12-28T00:24:53;363.05;;;110.20;;
13368;SDS011;6753;52.520;13.450;2023-12-28T00:25:04;369.25;;;111.60;;
13368;SDS011;6753;52.520;13.450;2023-12-28T00:25:16;363.90;;;111.68;;
13368;SDS011;6753;52.520;13.450;2023-12-28T00:25:27;360.95;;;111.97;;
13368;SDS011;6753;52.520;13.450;2023-12-28T00:25:38;360.95;;;111.70;;
13368;SDS011;6753;52.520;13.450;2023-12-28T00:25:49;360.33;;;109.97;;
13368;SDS011;6753;52.520;13.450;2023-12-28T00:26:00;351.75;;;107.53;;
13368;SDS011;6753;52.520;13.450;2023-12-28T00:26:11;352.87;;;107.40;;
13368;SDS011;6753;52.520;13.450;2023-12-28T00:26:21;355.10;;;107.22;;
13368;SDS011;6753;52.520;13.450;2023-12-28T00:26:32;354.88;;;108.55;;
13368;SDS011;6753;52.520;13.450;2023-12-28T00:26:43;354.65;;;108.28;;
13368;SDS011;6753;52.520;13.450;2023-12-28T00:26:54;346.90;;;108.40;;
13368;SDS011;6753;52.520;13.450;2023-12-28T00:27:05;345.35;;;106.72;;
13368;SDS011;6753;52.520;13.450;2023-12-28T00:27:16;341.20;;;105.60;;
13368;SDS011;6753;52.520;13.450;2023-12-28T00:27:27;332.40;;;102.70;;
13368;SDS011;6753;52.520;13.450;2023-12-28T00:27:37;336.23;;;103.13;;
13368;SDS011;6753;52.520;13.450;2023-12-28T00:27:48;338.45;;;103.72;;
13368;SDS011;6753;52.520;13.450;2023-12-28T00:27:59;342.85;;;104.00;;
13368;SDS011;6753;52.520;13.450;2023-12-28T00:28:10;344.50;;;105.33;;
13368;SDS011;6753;52.520;13.450;2023-12-28T00:28:20;354.90;;;107.03;;
13368;SDS011;6753;52.520;13.450;2023-12-28T00:28:31;355.20;;;107.55;;
13368;SDS011;6753;52.520;13.450;2023-12-28T00:28:42;355.35;;;107.55;;
13368;SDS011;6753;52.520;13.450;2023-12-28T00:28:54;354.27;;;106.90;;
13368;SDS011;6753;52.520;13.450;2023-12-28T00:29:04;358.38;;;106.30;;
13368;SDS011;6753;52.520;13.450;2023-12-28T00:29:15;352.83;;;104.68;;
13368;SDS011;6753;52.520;13.450;2023-12-28T00:29:26;351.60;;;105.00;;
13368;SDS011;6753;52.520;13.450;2023-12-28T00:29:38;352.00;;;103.15;;
13368;SDS011;6753;52.520;13.450;2023-12-28T00:29:51;352.50;;;103.60;;
13368;SDS011;6753;52.520;13.450;2023-12-28T00:30:02;346.17;;;104.13;;
13368;SDS011;6753;52.520;13.450;2023-12-28T00:30:13;344.48;;;104.07;;
13368;SDS011;6753;52.520;13.450;2023-12-28T00:30:23;344.10;;;104.32;;
13368;SDS011;6753;52.520;13.450;2023-12-28T00:30:34;345.48;;;105.78;;
13368;SDS011;6753;52.520;13.450;2023-12-28T00:30:45;342.70;;;105.90;;
13368;SDS011;6753;52.520;13.450;2023-12-28T00:30:57;340.80;;;106.53;;
13368;SDS011;6753;52.520;13.450;2023-12-28T00:31:09;340.02;;;106.00;;
13368;SDS011;6753;52.520;13.450;2023-12-28T00:31:19;334.00;;;104.60;;
13368;SDS011;6753;52.520;13.450;2023-12-28T00:31:30;322.90;;;101.80;;
13368;SDS011;6753;52.520;13.450;2023-12-28T00:31:42;327.73;;;101.15;;
13368;SDS011;6753;52.520;13.450;2023-12-28T00:31:53;325.90;;;99.03;;
13368;SDS011;6753;52.520;13.450;2023-12-28T00:32:04;318.88;;;96.95;;
13368;SDS011;6753;52.520;13.450;2023-12-28T00:32:15;321.85;;;98.18;;
13368;SDS011;6753;52.520;13.450;2023-12-28T00:32:26;320.05;;;97.70;;
13368;SDS011;6753;52.520;13.450;2023-12-28T00:32:37;318.75;;;97.65;;
13368;SDS011;6753;52.520;13.450;2023-12-28T00:32:47;316.27;;;96.93;;
13368;SDS011;6753;52.520;13.450;2023-12-28T00:32:58;316.05;;;98.05;;
13368;SDS011;6753;52.520;13.450;2023-12-28T00:33:10;311.00;;;96.70;;
13368;SDS011;6753;52.520;13.450;2023-12-28T00:33:21;309.35;;;96.60;;
13368;SDS011;6753;52.520;13.450;2023-12-28T00:33:32;307.98;;;96.40;;
13368;SDS011;6753;52.520;13.450;2023-12-28T00:33:42;310.87;;;97.30;;
13368;SDS011;6753;52.520;13.450;2023-12-28T00:33:53;319.00;;;98.15;;
13368;SDS011;6753;52.520;13.450;2023-12-28T00:34:04;323.77;;;98.38;;
13368;SDS011;6753;52.520;13.450;2023-12-28T00:34:15;330.15;;;98.40;;
13368;SDS011;6753;52.520;13.450;2023-12-28T00:34:25;335.53;;;98.77;;
13368;SDS011;6753;52.520;13.450;2023-12-28T00:34:36;336.27;;;97.63;;
13368;SDS011;6753;52.520;13.450;2023-12-28T00:34:47;329.48;;;97.03;;
13368;SDS011;6753;52.520;13.450;2023-12-28T00:34:59;322.48;;;95.93;;
13368;SDS011;6753;52.520;13.450;2023-12-28T00:35:09;321.80;;;94.90;;
13368;SDS011;6753;52.520;13.450;2023-12-28T00:35:22;317.50;;;94.97;;
13368;SDS011;6753;52.520;13.450;2023-12-28T00:35:33;314.83;;;94.30;;
13368;SDS011;6753;52.520;13.450;2023-12-28T00:35:44;316.45;;;94.53;;
13368;SDS011;6753;52.520;13.450;2023-12-28T00:35:55;320.87;;;94.80;;
13368;SDS011;6753;52.520;13.450;2023-12-28T00:36:05;315.48;;;93.95;;
13368;SDS011;6753;52.520;13.450;2023-12-28T00:36:16;307.80;;;93.35;;
13368;SDS011;6753;52.520;13.450;2023-12-28T00:36:27;301.15;;;93.03;;
13368;SDS011;6753;52.520;13.450;2023-12-28T00:36:41;300.63;;;92.72;;
13368;SDS011;6753;52.520;13.450;2023-12-28T00:36:53;297.65;;;91.25;;
13368;SDS011;6753;52.520;13.450;2023-12-28T00:37:03;299.20;;;91.50;;
13368;SDS011;6753;52.520;13.450;2023-12-28T00:37:14;303.40;;;91.93;;
13368;SDS011;6753;52.520;13.450;2023-12-28T00:37:25;303.30;;;90.70;;
13368;SDS011;6753;52.520;13.450;2023-12-28T00:37:35;300.65;;;89.78;;
13368;SDS011;6753;52.520;13.450;2023-12-28T00:37:47;301.75;;;89.43;;
13368;SDS011;6753;52.520;13.450;2023-12-28T00:37:58;308.35;;;89.05;;
13368;SDS011;6753;52.520;13.450;2023-12-28T00:38:09;308.67;;;88.73;;
13368;SDS011;6753;52.520;13.450;2023-12-28T00:38:20;319.35;;;89.90;;
13368;SDS011;6753;52.520;13.450;2023-12-28T00:38:30;319.00;;;90.35;;
13368;SDS011;6753;52.520;13.450;2023-12-28T00:38:41;325.60;;;92.22;;
13368;SDS011;6753;52.520;13.450;2023-12-28T00:38:53;320.70;;;93.07;;
13368;SDS011;6753;52.520;13.450;2023-12-28T00:39:04;309.25;;;92.90;;
13368;SDS011;6753;52.520;13.450;2023-12-28T00:39:14;302.00;;;92.55;;
13368;SDS011;6753;52.520;13.450;2023-12-28T00:39:25;299.65;;;92.90;;
13368;SDS011;6753;52.520;13.450;2023-12-28T00:39:36;300.17;;;93.07;;
13368;SDS011;6753;52.520;13.450;2023-12-28T00:39:48;298.17;;;92.07;;
13368;SDS011;6753;52.520;13.450;2023-12-28T00:40:00;303.05;;;92.18;;
13368;SDS011;6753;52.520;13.450;2023-12-28T00:40:11;306.92;;;91.35;;
13368;SDS011;6753;52.520;13.450;2023-12-28T00:40:22;307.63;;;92.20;;
13368;SDS011;6753;52.520;13.450;2023-12-28T00:40:33;311.13;;;90.38;;
13368;SDS011;6753;52.520;13.450;2023-12-28T00:40:44;311.40;;;89.97;;
13368;SDS011;6753;52.520;13.450;2023-12-28T00:40:55;306.05;;;89.93;;
13368;SDS011;6753;52.520;13.450;2023-12-28T00:41:06;307.80;;;91.45;;
13368;SDS011;6753;52.520;13.450;2023-12-28T00:41:16;304.83;;;90.97;;
13368;SDS011;6753;52.520;13.450;2023-12-28T00:41:27;300.50;;;92.23;;
13368;SDS011;6753;52.520;13.450;2023-12-28T00:41:38;300.92;;;93.88;;
13368;SDS011;6753;52.520;13.450;2023-12-28T00:41:49;296.63;;;93.82;;
13368;SDS011;6753;52.520;13.450;2023-12-28T00:42:00;300.65;;;94.30;;
13368;SDS011;6753;52.520;13.450;2023-12-28T00:42:10;300.60;;;93.27;;
13368;SDS011;6753;52.520;13.450;2023-12-28T00:42:22;300.83;;;92.65;;
13368;SDS011;6753;52.520;13.450;2023-12-28T00:42:33;302.85;;;91.70;;
13368;SDS011;6753;52.520;13.450;2023-12-28T00:42:43;310.17;;;90.93;;
13368;SDS011;6753;52.520;13.450;2023-12-28T00:42:54;308.65;;;89.95;;
13368;SDS011;6753;52.520;13.450;2023-12-28T00:43:05;308.33;;;89.03;;
13368;SDS011;6753;52.520;13.450;2023-12-28T00:43:17;306.05;;;87.50;;
13368;SDS011;6753;52.520;13.450;2023-12-28T00:43:27;302.87;;;86.20;;
13368;SDS011;6753;52.520;13.450;2023-12-28T00:43:38;303.77;;;85.90;;
13368;SDS011;6753;52.520;13.450;2023-12-28T00:43:49;299.38;;;84.55;;
13368;SDS011;6753;52.520;13.450;2023-12-28T00:44:01;301.13;;;84.90;;
13368;SDS011;6753;52.520;13.450;2023-12-28T00:44:12;294.48;;;85.32;;
13368;SDS011;6753;52.520;13.450;2023-12-28T00:44:22;300.20;;;86.77;;
13368;SDS011;6753;52.520;13.450;2023-12-28T00:44:33;294.27;;;86.60;;
13368;SDS011;6753;52.520;13.450;2023-12-28T00:44:44;296.05;;;87.88;;
13368;SDS011;6753;52.520;13.450;2023-12-28T00:44:55;303.67;;;89.90;;
13368;SDS011;6753;52.520;13.450;2023-12-28T00:45:06;299.17;;;89.72;;
13368;SDS011;6753;52.520;13.450;2023-12-28T00:45:17;300.98;;;89.32;;
13368;SDS011;6753;52.520;13.450;2023-12-28T00:45:30;301.00;;;90.37;;
13368;SDS011;6753;52.520;13.450;2023-12-28T00:45:41;296.08;;;88.45;;
13368;SDS011;6753;52.520;13.450;2023-12-28T00:45:52;294.30;;;87.53;;
13368;SDS011;6753;52.520;13.450;2023-12-28T00:46:03;299.00;;;88.72;;
13368;SDS011;6753;52.520;13.450;2023-12-28T00:46:15;307.77;;;91.55;;
13368;SDS011;6753;52.520;13.450;2023-12-28T00:46:26;307.48;;;92.07;;
13368;SDS011;6753;52.520;13.450;2023-12-28T00:46:37;309.73;;;93.00;;
13368;SDS011;6753;52.520;13.450;2023-12-28T00:46:49;310.83;;;94.32;;
13368;SDS011;6753;52.520;13.450;2023-12-28T00:46:59;317.67;;;95.78;;
13368;SDS011;6753;52.520;13.450;2023-12-28T00:47:10;315.65;;;95.03;;
13368;SDS011;6753;52.520;13.450;2023-12-28T00:47:21;313.90;;;94.43;;
13368;SDS011;6753;52.520;13.450;2023-12-28T00:47:32;315.73;;;95.47;;
13368;SDS011;6753;52.520;13.450;2023-12-28T00:47:43;315.65;;;95.43;;
13368;SDS011;6753;52.520;13.450;2023-12-28T00:47:54;305.60;;;93.90;;
13368;SDS011;6753;52.520;13.450;2023-12-28T00:48:06;300.33;;;92.88;;
13368;SDS011;6753;52.520;13.450;2023-12-28T00:48:18;296.33;;;92.38;;
13368;SDS011;6753;52.520;13.450;2023-12-28T00:48:29;297.45;;;90.13;;
13368;SDS011;6753;52.520;13.450;2023-12-28T00:48:40;298.80;;;90.10;;
13368;SDS011;6753;52.520;13.450;2023-12-28T00:48:50;301.90;;;89.25;;
13368;SDS011;6753;52.520;13.450;2023-12-28T00:49:01;307.23;;;89.37;;
13368;SDS011;6753;52.520;13.450;2023-12-28T00:49:12;312.35;;;89.13;;
13368;SDS011;6753;52.520;13.450;2023-12-28T00:49:22;319.50;;;89.30;;
13368;SDS011;6753;52.520;13.450;2023-12-28T00:49:33;316.57;;;89.10;;
13368;SDS011;6753;52.520;13.450;2023-12-28T00:49:44;313.88;;;88.80;;
13368;SDS011;6753;52.520;13.450;2023-12-28T00:49:55;309.48;;;89.22;;
13368;SDS011;6753;52.520;13.450;2023-12-28T00:50:06;310.67;;;90.70;;
13368;SDS011;6753;52.520;13.450;2023-12-28T00:50:17;301.23;;;90.72;;
13368;SDS011;6753;52.520;13.450;2023-12-28T00:50:28;296.85;;;91.38;;
13368;SDS011;6753;52.520;13.450;2023-12-28T00:50:41;291.02;;;90.25;;
13368;SDS011;6753;52.520;13.450;2023-12-28T00:50:52;290.48;;;89.90;;
13368;SDS011;6753;52.520;13.450;2023-12-28T00:51:05;279.83;;;87.68;;
13368;SDS011;6753;52.520;13.450;2023-12-28T00:51:15;284.67;;;87.80;;
13368;SDS011;6753;52.520;13.450;2023-12-28T00:51:26;292.90;;;88.53;;
13368;SDS011;6753;52.520;13.450;2023-12-28T00:51:37;295.02;;;88.88;;
13368;SDS011;6753;52.520;13.450;2023-12-28T00:51:48;295.10;;;90.05;;
13368;SDS011;6753;52.520;13.450;2023-12-28T00:51:58;301.80;;;91.00;;
13368;SDS011;6753;52.520;13.450;2023-12-28T00:52:13;296.48;;;90.53;;
13368;SDS011;6753;52.520;13.450;2023-12-28T00:52:23;286.80;;;89.60;;
13368;SDS011;6753;52.520;13.450;2023-12-28T00:52:34;279.63;;;88.40;;
13368;SDS011;6753;52.520;13.450;2023-12-28T00:52:46;274.33;;;87.70;;
13368;SDS011;6753;52.520;13.450;2023-12-28T00:52:57;268.33;;;85.97;;
13368;SDS011;6753;52.520;13.450;2023-12-28T00:53:07;271.40;;;86.27;;
13368;SDS011;6753;52.520;13.450;2023-12-28T00:53:18;273.05;;;85.22;;
13368;SDS011;6753;52.520;13.450;2023-12-28T00:53:30;271.60;;;84.32;;
13368;SDS011;6753;52.520;13.450;2023-12-28T00:53:41;274.30;;;84.28;;
13368;SDS011;6753;52.520;13.450;2023-12-28T00:53:52;280.35;;;83.65;;
13368;SDS011;6753;52.520;13.450;2023-12-28T00:54:02;281.92;;;83.80;;
13368;SDS011;6753;52.520;13.450;2023-12-28T00:54:16;273.60;;;81.28;;
13368;SDS011;6753;52.520;13.450;2023-12-28T00:54:26;271.67;;;81.10;;
13368;SDS011;6753;52.520;13.450;2023-12-28T00:54:37;273.15;;;81.03;;
13368;SDS011;6753;52.520;13.450;2023-12-28T00:54:48;269.02;;;81.13;;
13368;SDS011;6753;52.520;13.450;2023-12-28T00:55:00;259.23;;;79.78;;
13368;SDS011;6753;52.520;13.450;2023-12-28T00:55:10;257.98;;;79.82;;
13368;SDS011;6753;52.520;13.450;2023-12-28T00:55:21;256.73;;;79.13;;
13368;SDS011;6753;52.520;13.450;2023-12-28T00:55:32;258.73;;;79.83;;
13368;SDS011;6753;52.520;13.450;2023-12-28T00:55:43;254.60;;;79.63;;
13368;SDS011;6753;52.520;13.450;2023-12-28T00:55:53;255.05;;;80.15;;
13368;SDS011;6753;52.520;13.450;2023-12-28T00:56:04;257.25;;;80.50;;
13368;SDS011;6753;52.520;13.450;2023-12-28T00:56:15;264.60;;;80.27;;
13368;SDS011;6753;52.520;13.450;2023-12-28T00:56:26;261.93;;;79.30;;
13368;SDS011;6753;52.520;13.450;2023-12-28T00:56:37;260.60;;;78.40;;
13368;SDS011;6753;52.520;13.450;2023-12-28T00:56:48;255.05;;;76.47;;
13368;SDS011;6753;52.520;13.450;2023-12-28T00:56:59;258.30;;;76.95;;
13368;SDS011;6753;52.520;13.450;2023-12-28T00:57:10;259.10;;;77.00;;
13368;SDS011;6753;52.520;13.450;2023-12-28T00:57:21;263.45;;;79.20;;
13368;SDS011;6753;52.520;13.450;2023-12-28T00:57:32;267.50;;;79.88;;
13368;SDS011;6753;52.520;13.450;2023-12-28T00:57:42;270.95;;;80.78;;
13368;SDS011;6753;52.520;13.450;2023-12-28T00:57:53;274.50;;;80.90;;
13368;SDS011;6753;52.520;13.450;2023-12-28T00:58:04;273.02;;;81.88;;
13368;SDS011;6753;52.520;13.450;2023-12-28T00:58:14;275.98;;;81.72;;
13368;SDS011;6753;52.520;13.450;2023-12-28T00:58:25;269.27;;;80.07;;
13368;SDS011;6753;52.520;13.450;2023-12-28T00:58:38;275.20;;;81.15;;
13368;SDS011;6753;52.520;13.450;2023-12-28T00:58:50;272.15;;;80.00;;
13368;SDS011;6753;52.520;13.450;2023-12-28T00:59:01;269.88;;;78.13;;
13368;SDS011;6753;52.520;13.450;2023-12-28T00:59:12;270.05;;;78.32;;
13368;SDS011;6753;52.520;13.450;2023-12-28T00:59:23;276.60;;;78.88;;
13368;SDS011;6753;52.520;13.450;2023-12-28T00:59:34;272.80;;;78.25;;
13368;SDS011;6753;52.520;13.450;2023-12-28T00:59:44;276.03;;;78.63;;
13368;SDS011;6753;52.520;13.450;2023-12-28T00:59:55;279.60;;;79.55;;
13368;SDS011;6753;52.520;13.450;2023-12-28T01:00:06;276.63;;;79.70;;
13368;SDS011;6753;52.520;13.450;2023-12-28T01:00:18;274.60;;;80.32;;
13368;SDS011;6753;52.520;13.450;2023-12-28T01:00:29;272.48;;;81.47;;
13368;SDS011;6753;52.520;13.450;2023-12-28T01:00:40;271.45;;;81.30;;
13368;SDS011;6753;52.520;13.450;2023-12-28T01:00:51;274.55;;;82.38;;
13368;SDS011;6753;52.520;13.450;2023-12-28T01:01:05;278.35;;;82.97;;
13368;SDS011;6753;52.520;13.450;2023-12-28T01:01:16;275.95;;;81.80;;
13368;SDS011;6753;52.520;13.450;2023-12-28T01:01:27;272.55;;;79.38;;
13368;SDS011;6753;52.520;13.450;2023-12-28T01:01:40;270.48;;;79.50;;
13368;SDS011;6753;52.520;13.450;2023-12-28T01:01:52;261.88;;;78.13;;
13368;SDS011;6753;52.520;13.450;2023-12-28T01:02:03;259.95;;;77.78;;
13368;SDS011;6753;52.520;13.450;2023-12-28T01:02:14;258.10;;;78.90;;
13368;SDS011;6753;52.520;13.450;2023-12-28T01:02:25;252.20;;;78.33;;
13368;SDS011;6753;52.520;13.450;2023-12-28T01:02:36;251.40;;;76.90;;
13368;SDS011;6753;52.520;13.450;2023-12-28T01:02:47;248.02;;;75.90;;
13368;SDS011;6753;52.520;13.450;2023-12-28T01:02:59;246.25;;;75.47;;
13368;SDS011;6753;52.520;13.450;2023-12-28T01:03:09;244.20;;;74.47;;
13368;SDS011;6753;52.520;13.450;2023-12-28T01:03:20;242.98;;;74.15;;
13368;SDS011;6753;52.520;13.450;2023-12-28T01:03:31;246.48;;;73.70;;